Dobrodošli na spletni strani vremenske postaje Senovo. Vse informacije so informativnega značaja, saj vremenska postaja ni del državne mreže meteoroloških postaj. AKTUALNIH OBVESTIL NI.


Posebna pozornost v zvezi z vremenskimi dogajanji ni potrebna.    Posebna pozornost v zvezi z vremenskimi dogajanji ni potrebna.

Pogled proti Armezu več informacij Pogled proti Armezu


Bohor več informacij Bohor


Radar strel več informacij blitzortung!


Radar padavin več informacij rain snow radar


Obiščite še:

Template documentation
and downloads

And another site



Weather Underground, zgodovina - Tekstovno

Dnevni povzetek za Januar 5, 2017 Enote:  Metrično    Angleško   Obe
« Predhodni Dan
Naslednji Dan »
Dnevni Tedenski Mesečni Letni Po meri
  Višja: Nižja: Povprečje:
Temperatura: -17.8 °C -21.5 °C -18.7 °C
Točka rosišča: -17.8 °C -25.6 °C -22.3 °C
Vlažnost: Humidity % 39 % 65 %
Hitrost vetra: 0 km/h 0 km/h 8.9 km/h
Sunki vetra: 0 km/h - -
Veter:- - SE
Zračni tlak: 0 hPa 34097 hPa -
Padavine: 0 mm    
Historical Graphs
 
 
Tabelarni podarki za Januar 5, 2017
Čas Temperatura Točka rosišča Zračni tlak Veter Hitrost vetra Sunki vetra Vlažnost Intenziteta padavin (urna)
-17.8 °C -17.8 °C 0 hPa Calm     Humidity % 0 mm
00:04 -19.1 °C -19.9 °C 34130.9 hPa SSW 1.6 km/h 8.9 km/h 89 % 0 mm
00:10 -19.1 °C -19.8 °C 34130.9 hPa WSW 2.6 km/h 9.3 km/h 90 % 0 mm
00:20 -19.1 °C -19.8 °C 34130.9 hPa SE 1 km/h 7.6 km/h 90 % 0 mm
00:25 -19.1 °C -19.8 °C 34130.9 hPa SE 1.3 km/h 7.6 km/h 90 % 0 mm
00:30 -19.1 °C -19.8 °C 34130.9 hPa West 1.3 km/h 6.9 km/h 90 % 0 mm
00:35 -19.1 °C -19.9 °C 34130.9 hPa WNW 0.8 km/h 6.9 km/h 90 % 0 mm
00:40 -19.1 °C -19.9 °C 34130.9 hPa WNW 0.3 km/h 2.9 km/h 90 % 0 mm
00:45 -19.2 °C -19.9 °C 34130.9 hPa Calm     90 % 0 mm
00:50 -19.2 °C -19.9 °C 34130.9 hPa Calm     90 % 0 mm
00:55 -19.2 °C -19.9 °C 34130.9 hPa Calm     90 % 0 mm
01:00 -19.2 °C -20 °C 34130.9 hPa Calm     90 % 0 mm
01:05 -19.3 °C -20.1 °C 34130.9 hPa NNW 0.3 km/h 8 km/h 90 % 0 mm
01:15 -19.3 °C -20.1 °C 34097 hPa NNW 1 km/h 6.9 km/h 90 % 0 mm
01:20 -19.3 °C -20.1 °C 34097 hPa Calm     90 % 0 mm
01:25 -19.3 °C -20.1 °C 34130.9 hPa Calm   6.9 km/h 90 % 0 mm
01:30 -19.4 °C -20.2 °C 34130.9 hPa SSE 0.8 km/h 6.9 km/h 90 % 0 mm
01:40 -19.4 °C -20.2 °C 34130.9 hPa SW 2.3 km/h 5.6 km/h 90 % 0 mm
01:50 -19.5 °C -20.3 °C 34130.9 hPa SW 1.8 km/h 7.6 km/h 90 % 0 mm
01:55 -19.6 °C -20.3 °C 34130.9 hPa WNW 0.5 km/h 5.6 km/h 90 % 0 mm
02:00 -19.5 °C -20.3 °C 34130.9 hPa WNW 0.5 km/h 5.6 km/h 90 % 0 mm
02:05 -19.6 °C -20.3 °C 34130.9 hPa West 1 km/h 5.6 km/h 90 % 0 mm
02:06 -19.6 °C -20.3 °C 34130.9 hPa West 1 km/h 6.4 km/h 90 % 0 mm
02:11 -19.6 °C -20.4 °C 34130.9 hPa SW 3.1 km/h 8 km/h 90 % 0 mm
02:16 -19.6 °C -20.4 °C 34130.9 hPa SW 5.1 km/h 10.3 km/h 90 % 0 mm
02:21 -19.7 °C -20.5 °C 34130.9 hPa SW 3.9 km/h 10.3 km/h 90 % 0 mm
02:26 -19.7 °C -20.5 °C 34097 hPa NNW 2.1 km/h 8 km/h 90 % 0 mm
02:31 -19.7 °C -20.5 °C 34097 hPa NW 1.3 km/h 6.4 km/h 90 % 0 mm
02:36 -19.7 °C -20.5 °C 34097 hPa WSW 1.8 km/h 6.4 km/h 90 % 0 mm
02:41 -19.7 °C -20.5 °C 34097 hPa WSW 3.4 km/h 7.6 km/h 90 % 0 mm
02:46 -19.8 °C -20.6 °C 34097 hPa West 3.7 km/h 8 km/h 90 % 0 mm
02:51 -19.8 °C -20.6 °C 34097 hPa WNW 2.1 km/h 8 km/h 90 % 0 mm
02:56 -19.8 °C -20.6 °C 34097 hPa WSW 1.8 km/h 6.9 km/h 90 % 0 mm
03:01 -19.8 °C -20.6 °C 34097 hPa WSW 1.8 km/h 7.6 km/h 90 % 0 mm
03:06 -19.7 °C -20.4 °C 34097 hPa SSW 4.3 km/h 9.3 km/h 91 % 0 mm
03:11 -19.7 °C -20.4 °C 34097 hPa SW 6.4 km/h 9.3 km/h 91 % 0 mm
03:16 -19.8 °C -20.4 °C 34097 hPa NW 5.1 km/h 9.3 km/h 91 % 0 mm
03:21 -19.8 °C -20.5 °C 34097 hPa NW 4.2 km/h 7.6 km/h 91 % 0 mm
03:26 -19.8 °C -20.5 °C 34130.9 hPa NW 3.1 km/h 8.9 km/h 91 % 0 mm
03:31 -19.8 °C -20.5 °C 34130.9 hPa NW 1.8 km/h 8.9 km/h 91 % 0 mm
03:36 -19.9 °C -20.6 °C 34130.9 hPa NW 0.8 km/h 5.6 km/h 91 % 0 mm
03:41 -19.9 °C -20.7 °C 34097 hPa NW 0.3 km/h 5.1 km/h 91 % 0 mm
03:46 -20 °C -20.7 °C 34097 hPa NW 0.3 km/h 5.1 km/h 91 % 0 mm
03:51 -19.9 °C -20.7 °C 34097 hPa WSW 0.5 km/h 4.2 km/h 91 % 0 mm
03:56 -19.9 °C -20.7 °C 34130.9 hPa SW 1.8 km/h 5.1 km/h 91 % 0 mm
04:01 -20.1 °C -20.7 °C 34130.9 hPa WNW 1.6 km/h 5.6 km/h 91 % 0 mm
04:06 -20.1 °C -20.7 °C 34130.9 hPa NNW 1.8 km/h 5.6 km/h 91 % 0 mm
04:12 -20.1 °C -20.8 °C 34130.9 hPa NNW 2.3 km/h 5.1 km/h 91 % 0 mm
04:17 -20.1 °C -20.8 °C 34130.9 hPa NNW 1.8 km/h 6.4 km/h 91 % 0 mm
04:22 -20.2 °C -20.9 °C 34130.9 hPa NNW 0.8 km/h 6.4 km/h 91 % 0 mm
04:27 -20.2 °C -20.9 °C 34164.7 hPa Calm     91 % 0 mm
04:32 -20.2 °C -20.9 °C 34164.7 hPa Calm     91 % 0 mm
04:37 -20.3 °C -21 °C 34164.7 hPa Calm     91 % 0 mm
04:42 -20.4 °C -21.1 °C 34164.7 hPa NNW 0.5 km/h 5.6 km/h 91 % 0 mm
04:47 -20.4 °C -21.2 °C 34164.7 hPa NNW 0.5 km/h 5.6 km/h 90 % 0 mm
04:52 -20.5 °C -21.3 °C 34164.7 hPa Calm     90 % 0 mm
04:57 -20.6 °C -21.4 °C 34164.7 hPa Calm     90 % 0 mm
05:02 -20.6 °C -21.4 °C 34164.7 hPa Calm     90 % 0 mm
05:07 -20.7 °C -21.4 °C 34164.7 hPa Calm     90 % 0 mm
05:12 -20.7 °C -21.5 °C 34164.7 hPa Calm     90 % 0 mm
05:17 -20.8 °C -21.6 °C 34164.7 hPa Calm     90 % 0 mm
05:22 -20.8 °C -21.6 °C 34164.7 hPa Calm     90 % 0 mm
05:27 -20.8 °C -21.6 °C 34164.7 hPa Calm   2.9 km/h 90 % 0 mm
05:32 -20.9 °C -21.7 °C 34164.7 hPa Calm   2.9 km/h 90 % 0 mm
05:37 -20.9 °C -21.7 °C 34164.7 hPa NNW 0.8 km/h 5.6 km/h 90 % 0 mm
05:42 -21 °C -21.8 °C 34198.6 hPa NNW 0.8 km/h 5.6 km/h 90 % 0 mm
05:47 -21 °C -21.8 °C 34198.6 hPa Calm     90 % 0 mm
05:52 -21 °C -21.8 °C 34198.6 hPa Calm     90 % 0 mm
05:57 -21.1 °C -21.8 °C 34198.6 hPa Calm     90 % 0 mm
06:02 -21.1 °C -21.8 °C 34198.6 hPa Calm     90 % 0 mm
06:07 -21.1 °C -21.9 °C 34198.6 hPa Calm     90 % 0 mm
06:12 -21.1 °C -21.9 °C 34198.6 hPa NNW 0.8 km/h 5.6 km/h 90 % 0 mm
06:17 -21.1 °C -21.9 °C 34198.6 hPa West 1.3 km/h 5.6 km/h 90 % 0 mm
06:22 -21.1 °C -21.9 °C 34198.6 hPa SSW 1.6 km/h 5.1 km/h 90 % 0 mm
06:28 -21.1 °C -21.9 °C 34198.6 hPa SW 0.8 km/h 5.1 km/h 90 % 0 mm
06:33 -21.2 °C -21.9 °C 34198.6 hPa Calm     90 % 0 mm
06:38 -21.2 °C -21.9 °C 34198.6 hPa Calm     90 % 0 mm
06:43 -21.2 °C -21.9 °C 34198.6 hPa Calm     90 % 0 mm
06:48 -21.2 °C -22 °C 34198.6 hPa Calm     90 % 0 mm
06:53 -21.2 °C -22 °C 34198.6 hPa SW 0.5 km/h 5.1 km/h 90 % 0 mm
06:58 -21.3 °C -22.1 °C 34235.8 hPa SW 0.5 km/h 5.1 km/h 90 % 0 mm
07:03 -21.3 °C -22.1 °C 34235.8 hPa Calm     90 % 0 mm
07:08 -21.3 °C -22.1 °C 34235.8 hPa Calm     90 % 0 mm
07:13 -21.3 °C -22.1 °C 34198.6 hPa Calm     90 % 0 mm
07:18 -21.4 °C -22.2 °C 34198.6 hPa Calm     90 % 0 mm
07:23 -21.4 °C -22.2 °C 34198.6 hPa Calm     90 % 0 mm
07:38 -21.4 °C -22.2 °C 34198.6 hPa West 1.3 km/h 7.6 km/h 90 % 0 mm
07:43 -21.4 °C -22.2 °C 34198.6 hPa West 2.1 km/h 7.6 km/h 90 % 0 mm
07:48 -21.5 °C -22.3 °C 34198.6 hPa NW 1.3 km/h 5.6 km/h 90 % 0 mm
07:53 -21.5 °C -22.3 °C 34198.6 hPa NNW 0.5 km/h 5.6 km/h 90 % 0 mm
07:58 -21.5 °C -22.3 °C 34198.6 hPa Calm     90 % 0 mm
08:03 -21.5 °C -22.3 °C 34198.6 hPa Calm     90 % 0 mm
08:08 -21.4 °C -22.2 °C 34198.6 hPa South 0.5 km/h 5.1 km/h 90 % 0 mm
08:13 -21.4 °C -22.2 °C 34235.8 hPa NW 1.3 km/h 6.4 km/h 90 % 0 mm
08:18 -21.3 °C -22.1 °C 34235.8 hPa NNW 0.8 km/h 6.4 km/h 90 % 0 mm
08:28 -21.2 °C -21.8 °C 34269.7 hPa Calm     91 % 0 mm
08:29 -21.1 °C -21.8 °C 34269.7 hPa Calm     91 % 0 mm
08:34 -21.1 °C -21.7 °C 34269.7 hPa Calm     91 % 0 mm
08:39 -20.9 °C -21.6 °C 34269.7 hPa North 1.3 km/h 6.4 km/h 91 % 0 mm
08:44 -20.8 °C -21.5 °C 34235.8 hPa North 1 km/h 6.4 km/h 91 % 0 mm
08:49 -20.7 °C -21.3 °C 34235.8 hPa SE 1.3 km/h 7.6 km/h 92 % 0 mm
08:54 -20.6 °C -21.2 °C 34235.8 hPa SE 4.2 km/h 8.9 km/h 92 % 0 mm
09:00 -20.6 °C -21.2 °C 34235.8 hPa SE 4.3 km/h 8.9 km/h 92 % 0 mm
09:05 -20.4 °C -21.1 °C 34235.8 hPa SSW 2.3 km/h 6.4 km/h 92 % 0 mm
09:10 -20.4 °C -21 °C 34235.8 hPa WSW 1.8 km/h 6.4 km/h 92 % 0 mm
09:15 -20.3 °C -20.9 °C 34269.7 hPa SW 0.8 km/h 5.1 km/h 92 % 0 mm
09:20 -20.2 °C -20.8 °C 34269.7 hPa NNE 0.5 km/h 5.6 km/h 92 % 0 mm
09:25 -20.1 °C -20.6 °C 34269.7 hPa SSE 2.1 km/h 8.9 km/h 93 % 0 mm
09:30 -19.9 °C -20.5 °C 34303.6 hPa South 1.8 km/h 8.9 km/h 93 % 0 mm
09:35 -19.7 °C -20.2 °C 34303.6 hPa East 2.6 km/h 14 km/h 93 % 0 mm
09:40 -19.2 °C -19.7 °C 34303.6 hPa ENE 6.9 km/h 22 km/h 94 % 0 mm
09:45 -18.9 °C -19.3 °C 34303.6 hPa NE 13.2 km/h 29.5 km/h 94 % 0 mm
09:50 -18.3 °C -18.8 °C 34303.6 hPa NE 14.8 km/h 29.5 km/h 94 % 0 mm
09:55 -18 °C -18.6 °C 34303.6 hPa NE 13.5 km/h 39.9 km/h 93 % 0 mm
10:00 -17.8 °C -18.6 °C 34337.4 hPa NE 14 km/h 39.9 km/h 91 % 0 mm
10:05 -17.7 °C -18.5 °C 34337.4 hPa NE 11.9 km/h 27.7 km/h 90 % 0 mm
10:10 -17.7 °C -18.6 °C 34337.4 hPa ENE 8.5 km/h 16.9 km/h 89 % 0 mm
10:15 -17.7 °C -18.6 °C 34337.4 hPa East 3.7 km/h 12.2 km/h 89 % 0 mm
10:20 -17.6 °C -18.6 °C 34337.4 hPa ESE 3.1 km/h 9.3 km/h 88 % 0 mm
10:25 -17.6 °C -18.7 °C 34337.4 hPa East 7.2 km/h 16.3 km/h 87 % 0 mm
10:30 -17.4 °C -18.7 °C 34337.4 hPa ENE 9 km/h 16.3 km/h 85 % 0 mm
10:35 -17.3 °C -18.7 °C 34337.4 hPa NE 8.9 km/h 16.9 km/h 84 % 0 mm
10:40 -17.3 °C -18.8 °C 34371.3 hPa NE 6.4 km/h 14.5 km/h 82 % 0 mm
10:45 -17.2 °C -18.8 °C 34371.3 hPa NNW 5.6 km/h 33.2 km/h 81 % 0 mm
10:50 -17.1 °C -19.3 °C 34371.3 hPa NW 12.2 km/h 33.2 km/h 75 % 0 mm
10:55 -17.1 °C -19.3 °C 34337.4 hPa NNW 12.7 km/h 33.2 km/h 74 % 0 mm
11:00 -17 °C -19.3 °C 34337.4 hPa North 7.7 km/h 15.6 km/h 74 % 0 mm
11:05 -16.9 °C -19.5 °C 34337.4 hPa North 7.7 km/h 22.5 km/h 71 % 0 mm
11:10 -16.8 °C -20 °C 34371.3 hPa NNW 10.3 km/h 22.5 km/h 66 % 0 mm
11:15 -16.8 °C -20.3 °C 34371.3 hPa NNW 11.6 km/h 22 km/h 63 % 0 mm
11:20 -16.7 °C -20.2 °C 34371.3 hPa NNE 11.4 km/h 33.2 km/h 63 % 0 mm
11:25 -16.8 °C -20.3 °C 34337.4 hPa NNE 10.1 km/h 33.2 km/h 63 % 0 mm
11:30 -16.7 °C -20.4 °C 34337.4 hPa North 10.9 km/h 28.5 km/h 61 % 0 mm
11:35 -16.6 °C -20.6 °C 34337.4 hPa NNE 11.1 km/h 28.5 km/h 59 % 0 mm
11:40 -16.5 °C -20.4 °C 34337.4 hPa NE 7.7 km/h 19.2 km/h 60 % 0 mm
11:45 -16.4 °C -20.8 °C 34337.4 hPa NNW 8 km/h 31.4 km/h 56 % 0 mm
11:50 -16.3 °C -20.6 °C 34337.4 hPa NNW 11.4 km/h 31.4 km/h 57 % 0 mm
11:56 -16.2 °C -20.5 °C 34337.4 hPa NNW 10.1 km/h 19.2 km/h 57 % 0 mm
12:01 -16.1 °C -20.4 °C 34337.4 hPa NNW 6.9 km/h 19.2 km/h 57 % 0 mm
12:06 -16.1 °C -20.3 °C 34337.4 hPa North 4.7 km/h 14 km/h 57 % 0 mm
12:11 -15.9 °C -20.4 °C 34337.4 hPa ENE 4.7 km/h 9.3 km/h 56 % 0 mm
12:21 -15.9 °C -20.7 °C 34337.4 hPa NE 8.2 km/h 20.9 km/h 53 % 0 mm
12:26 -15.9 °C -20.8 °C 34337.4 hPa NE 10.9 km/h 22 km/h 53 % 0 mm
12:31 -16 °C -20.8 °C 34337.4 hPa NE 9.3 km/h 22 km/h 53 % 0 mm
12:36 -16.1 °C -21 °C 34337.4 hPa NE 9.3 km/h 22.5 km/h 52 % 0 mm
12:41 -16.1 °C -21.3 °C 34303.6 hPa NE 12.9 km/h 34.8 km/h 50 % 0 mm
12:46 -16.2 °C -21.6 °C 34303.6 hPa ENE 14 km/h 34.8 km/h 49 % 0 mm
12:51 -16.1 °C -21.9 °C 34303.6 hPa NE 14.5 km/h 34.1 km/h 46 % 0 mm
12:56 -16.1 °C -21.8 °C 34303.6 hPa NE 16.9 km/h 34.1 km/h 47 % 0 mm
13:01 -16.1 °C -21.8 °C 34303.6 hPa NE 12.9 km/h 27.2 km/h 47 % 0 mm
13:06 -16.1 °C -21.8 °C 34303.6 hPa NNE 10.1 km/h 20.3 km/h 47 % 0 mm
13:11 -16.1 °C -22.3 °C 34303.6 hPa ENE 13.2 km/h 45.1 km/h 44 % 0 mm
13:16 -16.2 °C -22.2 °C 34303.6 hPa ENE 16.1 km/h 45.1 km/h 45 % 0 mm
13:19 -16.2 °C -22.4 °C 34303.6 hPa ENE 17.4 km/h 45.1 km/h 44 % 0 mm
13:24 -16.2 °C -22.4 °C 34303.6 hPa NE 14.5 km/h 39.4 km/h 44 % 0 mm
13:29 -16.2 °C -22.6 °C 34337.4 hPa NE 14 km/h 31.9 km/h 43 % 0 mm
13:34 -16.2 °C -22.7 °C 34337.4 hPa NE 17.9 km/h 33.6 km/h 42 % 0 mm
13:39 -16.3 °C -22.4 °C 34337.4 hPa NE 16.9 km/h 33.6 km/h 44 % 0 mm
13:44 -16.2 °C -22.6 °C 34337.4 hPa North 13.7 km/h 23.8 km/h 43 % 0 mm
13:49 -16.2 °C -22.9 °C 34337.4 hPa NNE 14.5 km/h 32.3 km/h 41 % 0 mm
13:54 -16.2 °C -22.9 °C 34337.4 hPa North 15.6 km/h 32.3 km/h 41 % 0 mm
13:59 -16.2 °C -22.9 °C 34337.4 hPa NNW 16.1 km/h 34.8 km/h 41 % 0 mm
14:04 -16.2 °C -22.9 °C 34337.4 hPa North 17.1 km/h 34.8 km/h 41 % 0 mm
14:09 -16.1 °C -22.8 °C 34337.4 hPa North 16.6 km/h 38.3 km/h 41 % 0 mm
14:14 -16.1 °C -22.9 °C 34337.4 hPa NNW 17.1 km/h 38.3 km/h 40 % 0 mm
14:19 -16 °C -22.7 °C 34337.4 hPa North 17.9 km/h 33.2 km/h 41 % 0 mm
14:24 -16 °C -22.8 °C 34337.4 hPa NE 17.9 km/h 33.2 km/h 40 % 0 mm
14:29 -16.1 °C -22.9 °C 34337.4 hPa NE 19.2 km/h 35.2 km/h 40 % 0 mm
14:34 -16.1 °C -22.8 °C 34337.4 hPa NE 16.1 km/h 35.2 km/h 41 % 0 mm
14:39 -16.1 °C -22.7 °C 34337.4 hPa NE 14 km/h 27.2 km/h 41 % 0 mm
14:44 -16 °C -22.8 °C 34337.4 hPa NE 18.3 km/h 38.3 km/h 40 % 0 mm
14:49 -16 °C -22.7 °C 34337.4 hPa NE 17.5 km/h 38.3 km/h 41 % 0 mm
14:54 -16 °C -22.8 °C 34337.4 hPa NNE 17.1 km/h 39.4 km/h 40 % 0 mm
15:00 -16 °C -22.8 °C 34371.3 hPa NE 19.2 km/h 39.4 km/h 40 % 0 mm
15:05 -16 °C -22.8 °C 34371.3 hPa ENE 19.2 km/h 37.5 km/h 40 % 0 mm
15:10 -16.1 °C -22.9 °C 34371.3 hPa ENE 19.2 km/h 37.5 km/h 40 % 0 mm
15:15 -16.2 °C -23 °C 34371.3 hPa NE 16.9 km/h 42.2 km/h 40 % 0 mm
15:20 -16.2 °C -23.1 °C 34371.3 hPa NE 18.2 km/h 42.2 km/h 40 % 0 mm
15:25 -16.3 °C -23.1 °C 34371.3 hPa ENE 20.8 km/h 36.5 km/h 40 % 0 mm
15:30 -16.4 °C -23.4 °C 34405.1 hPa NE 19.2 km/h 48.1 km/h 39 % 0 mm
15:35 -16.6 °C -23.4 °C 34405.1 hPa NE 19.2 km/h 48.1 km/h 40 % 0 mm
15:40 -16.7 °C -23.4 °C 34405.1 hPa North 19.2 km/h 31.4 km/h 40 % 0 mm
15:45 -16.7 °C -23.3 °C 34405.1 hPa NNW 15.8 km/h 31.4 km/h 41 % 0 mm
15:50 -16.8 °C -23.4 °C 34405.1 hPa North 10.6 km/h 27.2 km/h 41 % 0 mm
15:55 -16.9 °C -23.5 °C 34405.1 hPa NNE 9.7 km/h 24.8 km/h 41 % 0 mm
16:00 -16.9 °C -23.5 °C 34405.1 hPa NNE 14 km/h 26.2 km/h 41 % 0 mm
16:05 -16.9 °C -23.5 °C 34405.1 hPa NNE 15.3 km/h 65 km/h 41 % 0 mm
16:11 -17 °C -23.6 °C 34405.1 hPa NE 18.8 km/h 65 km/h 41 % 0 mm
16:16 -17.1 °C -23.7 °C 34405.1 hPa NE 18.7 km/h 65 km/h 41 % 0 mm
16:21 -17.1 °C -23.7 °C 34405.1 hPa ENE 15.6 km/h 33.6 km/h 41 % 0 mm
16:26 -17.2 °C -23.6 °C 34428.8 hPa NE 15.8 km/h 33.2 km/h 42 % 0 mm
16:31 -17.2 °C -23.6 °C 34428.8 hPa NE 17.5 km/h 33.6 km/h 42 % 0 mm
16:36 -17.3 °C -23.7 °C 34428.8 hPa NE 21.7 km/h 53.3 km/h 42 % 0 mm
16:41 -17.3 °C -23.7 °C 34428.8 hPa ENE 24.1 km/h 53.3 km/h 42 % 0 mm
16:46 -17.4 °C -23.7 °C 34428.8 hPa ENE 17.9 km/h 31.9 km/h 43 % 0 mm
16:51 -17.5 °C -23.6 °C 34428.8 hPa East 14.2 km/h 28.5 km/h 44 % 0 mm
16:56 -17.6 °C -23.5 °C 34428.8 hPa East 13.7 km/h 28.5 km/h 45 % 0 mm
17:01 -17.7 °C -23.5 °C 34428.8 hPa East 11.6 km/h 23 km/h 45 % 0 mm
17:06 -17.7 °C -23.6 °C 34428.8 hPa East 12.7 km/h 26.7 km/h 45 % 0 mm
17:11 -17.7 °C -23.4 °C 34476.3 hPa East 14.5 km/h 26.7 km/h 46 % 0 mm
17:16 -17.8 °C -23.4 °C 34476.3 hPa ENE 17.4 km/h 26.7 km/h 47 % 0 mm
17:21 -17.9 °C -23.4 °C 34476.3 hPa East 18.2 km/h 28.5 km/h 47 % 0 mm
17:26 -17.9 °C -23.4 °C 34428.8 hPa East 17.4 km/h 28.5 km/h 47 % 0 mm
17:31 -17.9 °C -23.3 °C 34428.8 hPa East 14.5 km/h 26.2 km/h 48 % 0 mm
17:36 -18 °C -23.4 °C 34428.8 hPa East 11.1 km/h 24.3 km/h 48 % 0 mm
17:41 -18.1 °C -23.4 °C 34476.3 hPa East 12.2 km/h 27.2 km/h 48 % 0 mm
17:46 -18.1 °C -23.4 °C 34476.3 hPa ENE 12.4 km/h 29 km/h 48 % 0 mm
17:51 -18.1 °C -23.5 °C 34476.3 hPa ENE 9.7 km/h 29.5 km/h 48 % 0 mm
17:56 -18.2 °C -23.7 °C 34496.6 hPa East 11.1 km/h 34.1 km/h 47 % 0 mm
18:01 -18.2 °C -23.7 °C 34496.6 hPa ENE 13.2 km/h 34.1 km/h 47 % 0 mm
18:06 -18.2 °C -23.7 °C 34496.6 hPa NE 12.4 km/h 22 km/h 47 % 0 mm
18:11 -18.2 °C -24 °C 34533.8 hPa ENE 17.1 km/h 57.9 km/h 45 % 0 mm
18:16 -18.2 °C -24 °C 34533.8 hPa NE 23.5 km/h 57.9 km/h 45 % 0 mm
18:21 -18.2 °C -24.1 °C 34533.8 hPa NE 20.4 km/h 44.1 km/h 45 % 0 mm
18:26 -18.3 °C -24 °C 34533.8 hPa NE 16.6 km/h 39.9 km/h 46 % 0 mm
18:31 -18.3 °C -23.8 °C 34533.8 hPa NE 16.3 km/h 39.9 km/h 47 % 0 mm
18:36 -18.4 °C -23.9 °C 34533.8 hPa NE 15.3 km/h 27.7 km/h 47 % 0 mm
18:41 -18.4 °C -23.9 °C 34533.8 hPa NE 14.8 km/h 27.7 km/h 47 % 0 mm
18:46 -18.5 °C -24 °C 34533.8 hPa ENE 13.7 km/h 29 km/h 47 % 0 mm
18:51 -18.5 °C -24 °C 34533.8 hPa ENE 15.3 km/h 29 km/h 47 % 0 mm
18:56 -18.6 °C -24.2 °C 34533.8 hPa NE 14.5 km/h 27.7 km/h 46 % 0 mm
19:01 -18.6 °C -24.3 °C 34533.8 hPa NE 13.7 km/h 27.7 km/h 45 % 0 mm
19:06 -18.6 °C -24.4 °C 34533.8 hPa ENE 16.1 km/h 32.3 km/h 45 % 0 mm
19:11 -18.6 °C -24.4 °C 34533.8 hPa NE 16.1 km/h 32.3 km/h 45 % 0 mm
19:16 -18.7 °C -24.4 °C 34533.8 hPa NE 15 km/h 32.3 km/h 45 % 0 mm
19:21 -18.7 °C -24.5 °C 34533.8 hPa NNE 13.2 km/h 24.8 km/h 45 % 0 mm
19:26 -18.7 °C -24.5 °C 34533.8 hPa NE 12.9 km/h 33.2 km/h 45 % 0 mm
19:31 -18.8 °C -24.6 °C 34533.8 hPa ENE 14.2 km/h 33.2 km/h 45 % 0 mm
19:36 -18.8 °C -24.6 °C 34533.8 hPa NE 12.7 km/h 27.2 km/h 45 % 0 mm
19:41 -18.8 °C -24.6 °C 34533.8 hPa NNE 11.1 km/h 27.2 km/h 45 % 0 mm
19:46 -18.8 °C -24.6 °C 34533.8 hPa NE 11.6 km/h 22 km/h 45 % 0 mm
19:48 -18.8 °C -24.6 °C 34533.8 hPa NE 11.9 km/h 22 km/h 45 % 0 mm
19:53 -18.9 °C -24.7 °C 34533.8 hPa NE 12.2 km/h 26.2 km/h 45 % 0 mm
19:58 -18.9 °C -24.7 °C 34533.8 hPa NE 12.7 km/h 26.2 km/h 45 % 0 mm
20:03 -18.9 °C -24.7 °C 34533.8 hPa NE 16.1 km/h 27.2 km/h 45 % 0 mm
20:08 -18.9 °C -24.7 °C 34533.8 hPa NE 14 km/h 27.2 km/h 45 % 0 mm
20:13 -19 °C -24.8 °C 34567.7 hPa ENE 10.3 km/h 24.8 km/h 45 % 0 mm
20:18 -19.1 °C -24.8 °C 34567.7 hPa ENE 11.1 km/h 24.8 km/h 45 % 0 mm
20:23 -19.1 °C -24.8 °C 34567.7 hPa ENE 10.6 km/h 16.9 km/h 45 % 0 mm
20:28 -19.1 °C -24.8 °C 34567.7 hPa NE 8.5 km/h 16.9 km/h 45 % 0 mm
20:33 -19.1 °C -24.8 °C 34567.7 hPa NE 11.4 km/h 29.5 km/h 45 % 0 mm
20:38 -19.1 °C -24.8 °C 34567.7 hPa ENE 13.5 km/h 29.5 km/h 45 % 0 mm
20:48 -19.2 °C -24.9 °C 34601.5 hPa NNE 15.6 km/h 20.9 km/h 45 % 0 mm
20:53 -19.2 °C -25.1 °C 34601.5 hPa NE 20.8 km/h 33.2 km/h 44 % 0 mm
20:58 -19.2 °C -24.9 °C 34601.5 hPa ENE 16.1 km/h 33.2 km/h 45 % 0 mm
21:03 -19.2 °C -24.9 °C 34601.5 hPa ENE 10.6 km/h 19.2 km/h 45 % 0 mm
21:08 -19.3 °C -25 °C 34601.5 hPa NE 11.4 km/h 26.2 km/h 45 % 0 mm
21:13 -19.2 °C -25.1 °C 34601.5 hPa NE 15 km/h 33.6 km/h 44 % 0 mm
21:18 -19.3 °C -25.2 °C 34601.5 hPa ENE 15.8 km/h 33.6 km/h 44 % 0 mm
21:23 -19.3 °C -25.2 °C 34601.5 hPa NE 14.5 km/h 37.5 km/h 44 % 0 mm
21:28 -19.3 °C -25.2 °C 34567.7 hPa NE 11.6 km/h 37.5 km/h 44 % 0 mm
21:33 -19.3 °C -25.2 °C 34567.7 hPa ENE 9.3 km/h 26.7 km/h 44 % 0 mm
21:38 -19.3 °C -25.2 °C 34567.7 hPa NE 13.5 km/h 34.1 km/h 44 % 0 mm
21:43 -19.3 °C -25.2 °C 34601.5 hPa NNE 13.7 km/h 34.1 km/h 44 % 0 mm
21:48 -19.3 °C -25.3 °C 34601.5 hPa NNE 10.3 km/h 27.2 km/h 43 % 0 mm
21:53 -19.3 °C -25.3 °C 34601.5 hPa NNE 12.7 km/h 39.4 km/h 43 % 0 mm
21:58 -19.3 °C -25.3 °C 34601.5 hPa NE 17.9 km/h 42.2 km/h 43 % 0 mm
22:03 -19.3 °C -25.3 °C 34601.5 hPa NE 17.1 km/h 42.2 km/h 43 % 0 mm
22:08 -19.3 °C -25.5 °C 34601.5 hPa NE 13.7 km/h 34.1 km/h 42 % 0 mm
22:13 -19.3 °C -25.5 °C 34635.4 hPa NE 17.4 km/h 35.2 km/h 42 % 0 mm
22:18 -19.2 °C -25.4 °C 34635.4 hPa NE 20.4 km/h 44.1 km/h 42 % 0 mm
22:24 -19.3 °C -25.5 °C 34635.4 hPa NE 16.6 km/h 44.1 km/h 42 % 0 mm
22:28 -19.3 °C -25.5 °C 34635.4 hPa ENE 16.1 km/h 27.7 km/h 42 % 0 mm
22:34 -19.3 °C -25.5 °C 34635.4 hPa ENE 15.6 km/h 26.7 km/h 42 % 0 mm
22:39 -19.3 °C -25.5 °C 34635.4 hPa NE 13.7 km/h 34.1 km/h 42 % 0 mm
22:44 -19.3 °C -25.5 °C 34669.3 hPa NE 17.5 km/h 39.9 km/h 42 % 0 mm
22:49 -19.3 °C -25.5 °C 34669.3 hPa ENE 17.5 km/h 39.9 km/h 42 % 0 mm
22:54 -19.3 °C -25.5 °C 34669.3 hPa NE 16.3 km/h 31.9 km/h 42 % 0 mm
22:59 -19.4 °C -25.6 °C 34669.3 hPa ENE 16.3 km/h 31.9 km/h 42 % 0 mm
23:04 -19.4 °C -25.6 °C 34669.3 hPa ENE 14 km/h 24.8 km/h 42 % 0 mm
23:09 -19.4 °C -25.4 °C 34669.3 hPa ENE 12.2 km/h 22.5 km/h 43 % 0 mm
23:14 -19.5 °C -25.5 °C 34635.4 hPa ENE 12.2 km/h 26.2 km/h 43 % 0 mm
23:19 -19.5 °C -25.5 °C 34635.4 hPa East 11.1 km/h 26.2 km/h 43 % 0 mm
23:24 -19.6 °C -25.6 °C 34635.4 hPa East 10.9 km/h 27.7 km/h 43 % 0 mm
23:29 -19.6 °C -25.6 °C 34669.3 hPa NE 10.3 km/h 27.7 km/h 43 % 0 mm
23:34 -19.6 °C -25.6 °C 34669.3 hPa NE 9.7 km/h 48.1 km/h 43 % 0 mm
23:39 -19.6 °C -25.6 °C 34669.3 hPa NE 15 km/h 48.1 km/h 43 % 0 mm
23:44 -19.6 °C -25.6 °C 34669.3 hPa NE 17.5 km/h 38.3 km/h 43 % 0 mm
23:49 -19.6 °C -25.6 °C 34669.3 hPa NE 15.3 km/h 38.3 km/h 43 % 0 mm
23:54 -19.6 °C -25.6 °C 34669.3 hPa NE 13.7 km/h 34.1 km/h 43 % 0 mm
23:59 -19.6 °C -25.6 °C 34703.1 hPa NNE 13.5 km/h 34.1 km/h 43 % 0 mm
Vremenska postaja Senovo
Podatki zbrani iz Weather Underground - 2.75 mb

Script developed by  Jim McMurry - jmcmurry@mwt.net Adapted for the template by  Wim van der Kuil - Leuven-Template.eu

Vremenski podatki so objavljeni na:

European Weather Network

WeatherCloud

Weather Underground

AWEKAS

HAMweather, WeatherForYou, PWS Weather

MapView

Geostik

Slovenia weather network

Oprema, ki se uporablja:

Vremenski program
Cumulus

Vremenski server
Asus

Cumulus

Asus